KAUG

Augusta State Airport

Augusta, Maine, USA
KAUG 202339Z 2100/2124 31010G18KT P6SM SCT070 FM210200 31007KT P6SM FEW100 FM211300 32012G20KT P6SM FEW050 SCT100
Issued Valid From Valid To
Apr-20 @ 23:39 UTC
(4 hours ago)
Apr-21 @ 00:00 UTC
(4 hours ago)
Apr-22 @ 00:00 UTC
(in 20 hours)
Expired Click to View Apr-21 @ 00:00 to Apr-21 @ 02:00
KAUG 202339Z 2100/2124 31010G18KT P6SM SCT070
Wind Visibility Clouds
310° at 10 knots
 Gusting to 18 knots
Greater than 6 miles
  • Scattered at 7,000' AGL
From Apr-21 @ 02:00 to Apr-21 @ 13:00
FM210200 31007KT P6SM FEW100
Wind Visibility Clouds
310° at 7 knots Greater than 6 miles
  • Few at 10,000' AGL
From Apr-21 @ 13:00 to Apr-22 @ 00:00
FM211300 32012G20KT P6SM FEW050 SCT100
Wind Visibility Clouds
320° at 12 knots
 Gusting to 20 knots
Greater than 6 miles
  • Few at 5,000' AGL
  • Scattered at 10,000' AGL
KAUG 202339Z 2100/2124 31010G18KT P6SM SCT070 FM210200 31007KT P6SM FEW100 FM211300 32012G20KT P6SM FEW050 SCT100
Issued Apr-20 @ 23:39 UTC
(4 hours ago)
Valid From Apr-21 @ 00:00 UTC
(4 hours ago)
Valid To Apr-22 @ 00:00 UTC
(in 20 hours)
Apr-21 @ 00:00 - Apr-21 @ 02:00
Wind Visibility
310° at 10 knots
 Gusting to 18 knots
Greater than 6 miles
Clouds
  • Scattered at 7,000' AGL
From Apr-21 @ 02:00 - Apr-21 @ 13:00
Wind Visibility
310° at 7 knots Greater than 6 miles
Clouds
  • Few at 10,000' AGL
From Apr-21 @ 13:00 - Apr-22 @ 00:00
Wind Visibility
320° at 12 knots
 Gusting to 20 knots
Greater than 6 miles
Clouds
  • Few at 5,000' AGL
  • Scattered at 10,000' AGL